createdAt,value
2016-06-28T14:29:02.298Z,42.3
2016-06-28T14:30:03.162Z,44.15
2016-06-28T14:31:02.964Z,43.66
2016-06-28T14:32:02.359Z,44.05
2016-06-28T14:33:04.034Z,42.79
2016-06-28T14:34:03.013Z,42.21
2016-06-28T14:35:02.395Z,42.3
2016-06-28T14:36:02.413Z,43.27
2016-06-28T14:37:02.430Z,43.66
2016-06-28T14:38:03.081Z,43.08
2016-06-28T14:39:03.303Z,43.74
2016-06-28T14:40:03.327Z,43.16
2016-06-28T14:41:17.740Z,43.06
2016-06-28T14:42:03.525Z,44.03
2016-06-28T14:44:03.387Z,44.9
2016-06-28T14:46:03.399Z,43.52
2016-06-28T14:47:03.619Z,43.54
2016-06-28T14:48:03.250Z,43.93
2016-06-28T14:49:03.062Z,43.26
2016-06-28T14:50:03.275Z,42.67
2016-06-28T14:51:03.295Z,44.03
2016-06-28T14:53:17.924Z,43.64
2016-06-28T14:54:02.919Z,44.23
2016-06-28T14:55:02.711Z,44.32
2016-06-28T14:56:03.114Z,44.81
2016-06-28T14:57:02.726Z,45.29
2016-06-28T14:58:02.762Z,44.71
2016-06-28T14:59:03.404Z,45.1
2016-06-28T15:00:03.435Z,45.87
2016-06-28T15:01:02.784Z,44.71
2016-06-28T15:02:02.796Z,44.23
2016-06-28T15:03:03.432Z,44.51
2016-06-28T15:04:03.662Z,44.61
2016-06-28T15:05:18.496Z,45.68
2016-06-28T15:06:03.514Z,45.58
2016-06-28T15:07:03.114Z,45.68
2016-06-28T15:08:03.098Z,45.39
2016-06-28T15:09:03.122Z,45.78
2016-06-28T15:11:17.781Z,43.93
2016-06-28T15:12:03.597Z,43.16
2016-06-28T15:13:03.605Z,44.13
2016-06-28T15:14:03.666Z,44.81
2016-06-28T15:15:03.406Z,44.61
2016-06-28T15:16:03.658Z,44.9
2016-06-28T15:17:03.662Z,42.77
2016-06-28T15:18:18.305Z,43.74
2016-06-28T15:19:03.058Z,45.2
2016-06-28T15:20:03.287Z,45.07
2016-06-28T15:22:04.162Z,44.88
2016-06-28T15:24:03.145Z,45.87
2016-06-28T15:25:03.800Z,45.97
2016-06-28T16:06:02.966Z,43.79
2016-06-28T16:06:48.180Z,43.6
2016-06-28T16:08:47.793Z,43.7
2016-06-28T16:09:47.797Z,44.37
2016-06-28T16:10:48.879Z,44.96
2016-06-28T16:11:48.786Z,44.67
2016-06-28T16:13:48.386Z,45.42
2016-06-28T16:15:02.913Z,46.19
2016-06-28T16:16:48.133Z,45.81
2016-06-28T16:18:47.967Z,44.67
2016-06-28T16:20:03.124Z,46.8
2016-06-28T16:20:48.645Z,44.16
2016-06-28T16:21:48.162Z,44.86
2016-06-28T16:22:48.334Z,44.45
2016-06-28T16:23:48.719Z,44.84
2016-06-28T16:24:48.055Z,45.13
2016-06-28T16:25:48.723Z,45.13
2016-06-28T16:26:48.913Z,45.71
2016-06-28T16:27:48.955Z,44.45
2016-06-28T16:28:48.919Z,43
2016-06-28T16:29:48.963Z,44.16
2016-06-28T16:32:02.959Z,44.13
2016-06-28T16:32:48.963Z,44.13
2016-06-28T16:33:48.142Z,45.68
2016-06-28T16:34:49.010Z,46.08
2016-06-28T16:35:49.214Z,45.98
2016-06-28T16:36:48.411Z,46.56
2016-06-28T16:37:48.235Z,46.75
2016-06-28T16:38:48.436Z,46.46
2016-06-28T16:39:48.669Z,45.2
2016-06-28T16:40:48.917Z,45.4
2016-06-28T16:42:03.503Z,44.98
2016-06-28T16:42:48.332Z,44.89
2016-06-28T16:43:49.051Z,45.86
2016-06-28T16:45:03.539Z,46.44
2016-06-28T16:45:48.369Z,45.95
2016-06-28T16:46:49.883Z,47.02
2016-06-28T16:47:48.793Z,46.83
2016-06-28T16:48:49.048Z,46.73
2016-06-28T16:49:49.490Z,46.61
2016-06-28T16:51:48.475Z,47.58
2016-06-28T16:52:48.447Z,47
2016-06-28T16:53:48.409Z,46.61
2016-06-28T16:55:49.155Z,47.86
2016-06-28T16:57:03.710Z,47.96
2016-06-28T16:58:04.315Z,48.16
2016-06-28T16:58:49.124Z,48.35
2016-06-28T16:59:49.185Z,47.86
2016-06-28T17:01:03.345Z,48.16
2016-06-28T17:02:49.570Z,49.22
2016-06-28T17:03:49.870Z,49.12
2016-06-28T17:04:49.634Z,48.83
2016-06-28T17:05:49.431Z,48.54
2016-06-28T17:06:49.436Z,49.22
2016-06-28T17:07:49.624Z,47.77
2016-06-28T17:08:48.834Z,48.16
2016-06-28T17:09:48.681Z,47.67
2016-06-28T17:10:50.025Z,48.06
2016-06-28T17:12:03.503Z,47.48
2016-06-28T17:12:58.783Z,47.67
2016-06-28T17:13:58.040Z,47.86
2016-06-28T17:14:58.643Z,47.67
2016-06-28T17:16:13.001Z,47.96
2016-06-28T17:16:58.851Z,47.86
2016-06-28T17:18:13.174Z,47.96
2016-06-28T17:18:59.074Z,47.77
2016-06-28T17:19:58.616Z,47.48
2016-06-28T17:20:58.336Z,47.67
2016-06-28T17:22:58.907Z,47.69
2016-06-28T17:23:58.139Z,47.89
2016-06-28T17:24:58.051Z,47.89
2016-06-28T17:25:58.154Z,48.57
2016-06-28T17:26:59.104Z,47.89
2016-06-28T17:27:58.916Z,47.99
2016-06-28T17:28:58.747Z,47.89
2016-06-28T17:30:12.940Z,47.99
2016-06-28T17:30:58.110Z,47.79
2016-06-28T17:31:59.756Z,48.57
2016-06-28T17:32:59.202Z,49.15
2016-06-28T17:33:58.906Z,49.05
2016-06-28T17:35:13.219Z,49.44
2016-06-28T17:35:58.859Z,49.92
2016-06-28T17:36:58.978Z,49.15
2016-06-28T17:37:58.285Z,49.05
2016-06-28T17:38:58.289Z,48.64
2016-06-28T17:39:58.445Z,48.06
2016-06-28T17:40:58.480Z,48.08
2016-06-28T17:41:58.346Z,48.44
2016-06-28T17:42:58.950Z,48.83
2016-06-28T17:43:59.338Z,48.93
2016-06-28T17:44:59.158Z,48.74
2016-06-28T17:45:59.001Z,49.02
2016-06-28T17:46:58.336Z,49.7
2016-06-28T17:48:59.271Z,48.54
2016-06-28T17:49:58.455Z,48.25
2016-06-28T17:51:13.435Z,47.86
2016-06-28T17:51:59.089Z,48.25
2016-06-28T17:52:59.676Z,48.25
2016-06-28T17:54:58.892Z,49.12
2016-06-28T17:55:59.224Z,48.71
2016-06-28T17:56:59.225Z,49.32
2016-06-28T17:57:59.595Z,49.29
2016-06-28T17:59:59.463Z,49.32
2016-06-28T18:00:59.414Z,49.68
2016-06-28T18:02:13.600Z,50.07
2016-06-28T18:02:59.558Z,50.07
2016-06-28T18:03:59.018Z,49.77
2016-06-28T18:05:00.225Z,50.74
2016-06-28T18:05:59.490Z,50.45
2016-06-28T18:08:13.882Z,51.32
2016-06-28T18:08:58.954Z,51.81
2016-06-28T18:10:13.596Z,51.81
2016-06-28T18:10:59.186Z,51.87
2016-06-28T18:11:58.969Z,51.97
2016-06-28T18:13:00.007Z,52.17
2016-06-28T18:13:59.643Z,51.78
2016-06-28T18:14:58.832Z,52.17
2016-06-28T18:15:59.086Z,52.07
2016-06-28T18:16:58.962Z,52.84
2016-06-28T18:17:59.443Z,52.65
2016-06-28T18:19:00.034Z,53.03
2016-06-28T18:19:59.801Z,52.94
2016-06-28T18:20:59.224Z,53.03
2016-06-28T18:21:58.854Z,52.36
2016-06-28T18:22:59.721Z,52.55
2016-06-28T18:24:59.123Z,52.55
2016-06-28T18:25:59.557Z,52.55
2016-06-28T18:27:00.231Z,52.84
2016-06-28T18:29:00.123Z,52.72
2016-06-28T18:29:59.796Z,52.75
2016-06-28T18:30:59.851Z,53.01
2016-06-28T18:31:59.037Z,53.13
2016-06-28T18:33:00.664Z,53.23
2016-06-28T18:35:13.845Z,53.11
2016-06-28T18:35:59.937Z,53.11
2016-06-28T18:37:00.076Z,53.39
2016-06-28T18:37:59.654Z,53.49
2016-06-28T18:38:59.082Z,53.69
2016-06-28T18:39:59.120Z,54.27
2016-06-28T18:41:00.226Z,54.75
2016-06-28T18:43:00.152Z,55.23
2016-06-28T18:44:00.473Z,55.71
2016-06-28T18:44:59.193Z,56.2
2016-06-28T18:45:59.726Z,56.39
2016-06-28T18:47:14.155Z,56.87
2016-06-28T18:47:59.780Z,56.87
2016-06-28T18:48:59.146Z,57.04
2016-06-28T18:50:00.235Z,57.16
2016-06-28T18:50:59.214Z,57.54
2016-06-28T18:54:00.513Z,57.35
2016-06-28T18:56:59.294Z,57.14
2016-06-28T18:57:59.937Z,56.94
2016-06-28T18:58:59.275Z,57.23
2016-06-28T19:00:00.154Z,57.32
2016-06-28T19:01:00.360Z,57.62
2016-06-28T19:02:00.187Z,58
2016-06-28T19:03:00.155Z,58.58
2016-06-28T19:03:59.546Z,59.16
2016-06-28T19:05:14.571Z,59.25
2016-06-28T19:06:14.390Z,59.35
2016-06-28T19:06:59.622Z,59.74
2016-06-28T19:08:00.418Z,59.83
2016-06-28T19:09:00.047Z,59.83
2016-06-28T19:09:59.412Z,60.41
2016-06-28T19:10:59.448Z,60.58
2016-06-28T19:12:00.124Z,60.58
2016-06-28T19:12:59.943Z,60.19
2016-06-28T19:14:00.326Z,60.1
2016-06-28T19:15:00.368Z,60.77
2016-06-28T19:16:14.727Z,60.38
2016-06-28T19:17:00.391Z,60.1
2016-06-28T19:18:00.430Z,60.96
2016-06-28T19:18:59.649Z,61.25
2016-06-28T19:19:59.555Z,60.96
2016-06-28T19:20:59.570Z,61.25
2016-06-28T19:22:00.209Z,60.68
2016-06-28T19:22:59.559Z,60.96
2016-06-28T19:24:00.408Z,60.64
2016-06-28T19:25:59.787Z,61.32
2016-06-28T19:27:00.263Z,60.93
2016-06-28T19:28:14.683Z,61.71
2016-06-28T19:28:59.717Z,61.99
2016-06-28T19:30:00.289Z,61.71
2016-06-28T19:31:00.561Z,62.09
2016-06-28T19:31:59.871Z,62.09
2016-06-28T19:33:00.778Z,61.9
2016-06-28T19:35:14.552Z,62.09
2016-06-28T19:36:00.555Z,62.38
2016-06-28T19:37:01.412Z,62.35
2016-06-28T19:39:14.975Z,62.35
2016-06-28T19:41:00.051Z,62.45
2016-06-28T19:42:00.430Z,62.06
2016-06-28T19:43:00.620Z,62.73
2016-06-28T19:44:00.651Z,62.25
2016-06-28T19:44:59.824Z,62.63
2016-06-28T19:46:00.438Z,62.63
2016-06-28T19:46:59.892Z,62.45
2016-06-28T19:48:00.287Z,62.73
2016-06-28T19:49:00.749Z,62.73
2016-06-28T19:50:01.070Z,62.73
2016-06-28T19:51:00.626Z,62.83
2016-06-28T19:52:00.610Z,62.63
2016-06-28T19:53:00.379Z,63.21
2016-06-28T19:53:59.924Z,63.12
2016-06-28T19:55:14.979Z,62.73
2016-06-28T19:56:00.970Z,63.09
2016-06-28T19:57:00.129Z,62.8
2016-06-28T19:58:00.079Z,62.6
2016-06-28T19:59:00.016Z,62.6
2016-06-28T20:00:01.069Z,62.99
2016-06-28T20:01:00.500Z,63.09
2016-06-28T20:02:00.042Z,62.99
2016-06-28T20:03:01.065Z,63.09
2016-06-28T20:04:02.450Z,63.18
2016-06-28T20:05:00.230Z,63.18
2016-06-28T20:06:00.322Z,63.28
2016-06-28T20:07:01.094Z,63.85
2016-06-28T20:08:00.058Z,63.67
2016-06-28T20:09:00.917Z,63.85
2016-06-28T20:10:00.510Z,64.15
2016-06-28T20:11:01.172Z,64.43
2016-06-28T20:12:00.252Z,64.53
2016-06-28T20:13:00.742Z,64.79
2016-06-28T20:15:00.285Z,64.4
2016-06-28T20:17:00.479Z,64.5
2016-06-28T20:18:00.872Z,64.69
2016-06-28T20:19:01.134Z,64.31
2016-06-28T20:20:00.827Z,64.79
2016-06-28T20:21:00.415Z,65.27
2016-06-28T20:22:00.859Z,64.95
2016-06-28T20:23:01.084Z,65.05
2016-06-28T20:24:00.234Z,64.79
2016-06-28T20:25:00.893Z,65.05
2016-06-28T20:26:01.094Z,65.14
2016-06-28T20:27:00.462Z,64.95
2016-06-28T20:28:01.122Z,65.05
2016-06-28T20:30:01.151Z,66.01
2016-06-28T20:32:00.337Z,66.39
2016-06-28T20:33:01.166Z,66.58
2016-06-28T20:34:00.534Z,66.49
2016-06-28T20:35:01.087Z,66.97
2016-06-28T20:36:00.593Z,66.68
2016-06-28T20:37:00.777Z,66.88
2016-06-28T20:38:00.677Z,66.88
2016-06-28T20:39:01.075Z,67.07
2016-06-28T20:40:02.462Z,67.32
2016-06-28T20:41:01.046Z,67.9
2016-06-28T20:42:15.461Z,67.8
2016-06-28T20:43:01.081Z,67.71
2016-06-28T20:44:01.069Z,67.32
2016-06-28T20:45:01.087Z,67.03
2016-06-28T20:46:00.502Z,67.22
2016-06-28T20:47:00.464Z,67.13
2016-06-28T20:48:00.707Z,67.61
2016-06-28T20:49:00.532Z,66.84
2016-06-28T20:50:15.371Z,66.84
2016-06-28T20:51:15.543Z,66.84
2016-06-28T20:52:01.372Z,66.84
2016-06-28T20:53:01.166Z,67.22
2016-06-28T20:54:01.187Z,66.94
2016-06-28T20:55:15.783Z,67.13
2016-06-28T20:56:01.631Z,66.94
2016-06-28T20:57:01.244Z,67.03
2016-06-28T20:58:01.845Z,67.03
2016-06-28T21:00:01.244Z,67.38
2016-06-28T21:01:01.257Z,66.81
2016-06-28T21:02:00.628Z,67.61
2016-06-28T21:03:01.269Z,68.06
2016-06-28T21:04:00.676Z,67.96
2016-06-28T21:05:00.859Z,67.96
2016-06-28T21:06:00.681Z,67.68
2016-06-28T21:07:00.867Z,68.15
2016-06-28T21:08:01.329Z,68.35
2016-06-28T21:09:15.928Z,68.06
2016-06-28T21:10:01.130Z,68.25
2016-06-28T21:11:01.356Z,68.35
2016-06-28T21:12:00.920Z,68.35
2016-06-28T21:13:00.942Z,68.63
2016-06-28T21:15:00.768Z,68.73
2016-06-28T21:17:00.763Z,69.02
2016-06-28T21:18:00.787Z,69.18
2016-06-28T21:19:01.436Z,68.35
2016-06-28T21:20:00.793Z,68.98
2016-06-28T21:21:01.435Z,68.89
2016-06-28T21:22:01.886Z,68.51
2016-06-28T21:23:01.457Z,68.31
2016-06-28T21:24:01.471Z,68.51
2016-06-28T21:25:01.699Z,68.41
2016-06-28T21:26:00.853Z,68.12
2016-06-28T21:27:01.730Z,68.21
2016-06-28T21:28:02.313Z,68.31
2016-06-28T21:29:01.539Z,68.41
2016-06-28T21:30:01.718Z,67.83
2016-06-28T21:31:01.551Z,67.93
2016-06-28T21:32:01.563Z,68.51
2016-06-28T21:33:00.910Z,68.7
2016-06-28T21:34:00.924Z,68.41
2016-06-28T21:35:01.133Z,68.7
2016-06-28T21:36:00.979Z,68.41
2016-06-28T21:37:15.788Z,68.6
2016-06-28T21:38:01.613Z,68.98
2016-06-28T21:39:01.615Z,68.89
2016-06-28T21:41:15.825Z,68.89
2016-06-28T21:42:01.850Z,68.79
2016-06-28T21:43:16.244Z,68.98
2016-06-28T21:44:01.647Z,68.7
2016-06-28T21:45:16.464Z,69.81
2016-06-28T21:46:01.057Z,70.2
2016-06-28T21:47:01.674Z,69.53
2016-06-28T21:48:02.126Z,69.14
2016-06-28T21:49:02.122Z,70.01
2016-06-28T21:50:01.700Z,69.24
2016-06-28T21:51:02.324Z,69.62
2016-06-28T21:53:01.745Z,70.1
2016-06-28T21:54:01.109Z,70.39
2016-06-28T21:55:01.111Z,70.1
2016-06-28T21:56:01.358Z,69.81
2016-06-28T21:57:01.137Z,70.01
2016-06-28T21:58:02.008Z,69.72
2016-06-28T22:00:01.154Z,70.68
2016-06-28T22:01:01.181Z,70.29
2016-06-28T22:02:01.192Z,70.39
2016-06-28T22:03:01.203Z,70.97
2016-06-28T22:04:01.835Z,70.68
2016-06-28T22:05:01.855Z,70.2
2016-06-28T22:06:01.618Z,70.01
2016-06-28T22:07:01.242Z,70.07
2016-06-28T22:08:01.443Z,70.78
2016-06-28T22:09:01.249Z,71.22
2016-06-28T22:10:01.261Z,71.16
2016-06-28T22:11:16.089Z,70.87
2016-06-28T22:12:01.261Z,70.26
2016-06-28T22:14:01.960Z,71.8
2016-06-28T22:15:02.183Z,71.22
2016-06-28T22:16:01.966Z,71.7
2016-06-28T22:17:01.951Z,71.41
2016-06-28T22:18:16.359Z,71.61
2016-06-28T22:19:01.951Z,71.98
2016-06-28T22:20:02.414Z,71.89
2016-06-28T22:21:01.989Z,72.28
2016-06-28T22:23:01.994Z,71.89
2016-06-28T22:25:02.014Z,71.89
2016-06-28T22:28:02.057Z,71.98
2016-06-28T22:29:01.434Z,71.8
2016-06-28T22:30:01.640Z,71.31
2016-06-28T22:31:01.430Z,71.8
2016-06-28T22:32:01.438Z,71.7
2016-06-28T22:33:01.450Z,71.8
2016-06-28T22:34:01.484Z,71.89
2016-06-28T22:35:01.665Z,71.89
2016-06-28T22:36:01.881Z,71.8
2016-06-28T22:37:01.881Z,71.7
2016-06-28T22:38:03.352Z,71.61
2016-06-28T22:39:01.543Z,71.7
2016-06-28T22:40:16.340Z,71.61
2016-06-28T22:41:16.555Z,70.93
2016-06-28T22:42:01.737Z,71.22
2016-06-28T22:43:16.593Z,71.7
2016-06-28T22:44:01.754Z,71.7
2016-06-28T22:45:02.204Z,71.41
2016-06-28T22:46:02.818Z,71.41
2016-06-28T22:47:02.423Z,71.41
2016-06-28T22:48:02.425Z,71.61
2016-06-28T22:49:02.425Z,70.74
2016-06-28T22:50:02.638Z,71.61
2016-06-28T22:51:02.648Z,71.61
2016-06-28T22:52:02.252Z,71.61
2016-06-28T22:53:02.254Z,70.93
2016-06-28T22:54:01.659Z,71.51
2016-06-28T22:55:16.466Z,71.31
2016-06-28T22:56:01.853Z,71.12
2016-06-28T22:57:01.900Z,71.51
2016-06-28T22:58:16.911Z,71.12
2016-06-28T22:59:02.735Z,71.22
2016-06-28T23:00:02.121Z,71.22
2016-06-28T23:01:16.722Z,71.37
2016-06-28T23:02:02.098Z,71.19
2016-06-28T23:03:02.358Z,70.99
2016-06-28T23:04:02.353Z,70.9
2016-06-28T23:05:02.367Z,70.99
2016-06-28T23:06:02.370Z,71.09
2016-06-28T23:07:02.583Z,70.99
2016-06-28T23:08:02.387Z,71.09
2016-06-28T23:09:02.378Z,70.99
2016-06-28T23:10:02.388Z,70.9
2016-06-28T23:11:17.002Z,70.84
2016-06-28T23:12:02.626Z,70.9
2016-06-28T23:13:17.230Z,70.8
2016-06-28T23:14:02.633Z,70.8
2016-06-28T23:15:01.802Z,70.99
2016-06-28T23:16:02.460Z,70.99
2016-06-28T23:17:02.667Z,71.66
2016-06-28T23:18:02.878Z,70.9
2016-06-28T23:20:01.836Z,70.99
2016-06-28T23:22:02.707Z,71.19
2016-06-28T23:23:02.085Z,71.66
2016-06-28T23:24:02.742Z,71.76
2016-06-28T23:25:01.899Z,72.53
2016-06-28T23:26:02.520Z,71.95
2016-06-28T23:27:02.325Z,71.76
2016-06-28T23:28:01.945Z,71.86
2016-06-28T23:29:01.931Z,71.86
2016-06-28T23:30:01.939Z,71.76
2016-06-28T23:31:01.934Z,71.95
2016-06-28T23:32:01.973Z,72.43
2016-06-28T23:33:01.947Z,71.95
2016-06-28T23:34:01.971Z,72.43
2016-06-28T23:35:02.208Z,71.95
2016-06-28T23:37:01.995Z,72.63
2016-06-28T23:39:02.407Z,72.05
2016-06-28T23:40:02.213Z,71.95
2016-06-28T23:41:02.047Z,72.63
2016-06-28T23:43:02.470Z,72.53
2016-06-28T23:44:02.855Z,72.05
2016-06-28T23:45:02.074Z,72.72
2016-06-28T23:46:02.272Z,72.05
2016-06-28T23:48:02.299Z,72.33
2016-06-28T23:49:02.083Z,72.14
2016-06-28T23:50:02.107Z,72.43
2016-06-28T23:51:02.103Z,72.05
2016-06-28T23:52:02.322Z,72.33
2016-06-28T23:54:02.978Z,72.24
2016-06-28T23:55:03.206Z,71.95
2016-06-28T23:56:02.986Z,72.14
2016-06-28T23:57:02.783Z,72.24
2016-06-28T23:58:02.788Z,72.05
2016-06-28T23:59:03.201Z,72.33
